Time;durP1;ratioP1;P1;durP2;ratioP2;P2;SDS_P1;SDS_P2;PMS_P1;PMS_P2;Temp;Humidity;BMP_temperature;BMP_pressure;BME280_temperature;BME280_humidity;BME280_pressure;Samples;Min_cycle;Max_cycle;Signal;HPM_P1;HPM_P2
2023/08/15 00:00:29;;;;;;;13.13;8.35;;;;;;;;;;5029523;28;20239;-71
2023/08/15 00:02:54;;;;;;;13.32;7.05;;;;;;;;;;5025676;28;20187;-71
2023/08/15 00:05:20;;;;;;;9.45;6.80;;;;;;;;;;5031776;28;20186;-71
2023/08/15 00:07:45;;;;;;;12.77;7.45;;;;;;;;;;5031710;28;20197;-71
2023/08/15 00:10:10;;;;;;;15.30;8.48;;;;;;;;;;5031808;28;20229;-71
2023/08/15 00:12:36;;;;;;;15.70;8.32;;;;;;;;;;5029392;28;20190;-71
2023/08/15 00:15:02;;;;;;;20.75;8.80;;;;;;;;;;5031474;28;20202;-71
2023/08/15 00:17:27;;;;;;;15.32;8.82;;;;;;;;;;5030074;28;20210;-71
2023/08/15 00:19:53;;;;;;;12.63;9.65;;;;;;;;;;5030062;28;20195;-71
2023/08/15 00:22:18;;;;;;;14.38;8.95;;;;;;;;;;5030451;28;20186;-71
2023/08/15 00:24:44;;;;;;;14.95;9.82;;;;;;;;;;5030220;28;20190;-71
2023/08/15 00:27:09;;;;;;;12.35;10.05;;;;;;;;;;5029070;28;20221;-71
2023/08/15 00:29:35;;;;;;;17.65;10.50;;;;;;;;;;5023204;28;20236;-71
2023/08/15 00:32:00;;;;;;;16.85;10.07;;;;;;;;;;5043466;28;20668;-71
2023/08/15 00:34:25;;;;;;;13.35;9.88;;;;;;;;;;5021429;28;20649;-71
2023/08/15 00:36:51;;;;;;;10.70;8.68;;;;;;;;;;5040027;28;20197;-71
2023/08/15 00:39:16;;;;;;;12.68;9.43;;;;;;;;;;5022704;28;20675;-71
2023/08/15 00:41:41;;;;;;;14.18;9.93;;;;;;;;;;5031563;28;20198;-72
2023/08/15 00:44:07;;;;;;;15.80;10.32;;;;;;;;;;5024639;28;20228;-71
2023/08/15 00:46:33;;;;;;;15.90;10.90;;;;;;;;;;5029151;28;20244;-71
2023/08/15 00:48:59;;;;;;;13.75;11.18;;;;;;;;;;5030052;28;20209;-71
2023/08/15 00:51:26;;;;;;;15.57;10.65;;;;;;;;;;5029556;28;20259;-71
2023/08/15 00:53:52;;;;;;;13.20;10.20;;;;;;;;;;5028211;28;20319;-71
2023/08/15 00:56:18;;;;;;;13.43;10.38;;;;;;;;;;5030425;28;20259;-72
2023/08/15 00:58:44;;;;;;;13.93;10.80;;;;;;;;;;5016984;28;20560;-72
2023/08/15 01:01:16;;;;;;;16.20;10.57;;;;;;;;;;5030124;28;20186;-71
2023/08/15 01:03:42;;;;;;;15.52;11.43;;;;;;;;;;5029522;28;20197;-71
2023/08/15 01:06:08;;;;;;;16.63;12.48;;;;;;;;;;5030285;28;20487;-71
2023/08/15 01:08:33;;;;;;;12.73;10.60;;;;;;;;;;5029633;28;22071;-71
2023/08/15 01:11:00;;;;;;;16.98;12.18;;;;;;;;;;5030289;28;20299;-71
2023/08/15 01:13:29;;;;;;;13.90;11.10;;;;;;;;;;5011081;28;20186;-71
2023/08/15 01:15:55;;;;;;;14.98;12.05;;;;;;;;;;5019409;28;20197;-71
2023/08/15 01:18:41;;;;;;;15.75;11.73;;;;;;;;;;5026311;28;20222;-71
2023/08/15 01:21:07;;;;;;;14.52;12.02;;;;;;;;;;5017483;28;20177;-71
2023/08/15 01:23:44;;;;;;;14.82;12.48;;;;;;;;;;5029460;28;20205;-71
2023/08/15 01:26:10;;;;;;;19.35;12.73;;;;;;;;;;5029381;28;20276;-71
2023/08/15 01:28:35;;;;;;;17.80;12.65;;;;;;;;;;5029396;28;20664;-71
2023/08/15 01:31:09;;;;;;;16.55;12.48;;;;;;;;;;5032572;28;20318;-71
2023/08/15 01:33:45;;;;;;;15.75;12.05;;;;;;;;;;5031435;28;20606;-71
2023/08/15 01:36:20;;;;;;;16.88;14.00;;;;;;;;;;5029832;28;20281;-70
2023/08/15 01:38:49;;;;;;;16.98;13.20;;;;;;;;;;5028919;28;20308;-71
2023/08/15 01:41:20;;;;;;;17.40;13.38;;;;;;;;;;5028371;28;20288;-71
2023/08/15 01:43:47;;;;;;;15.20;13.05;;;;;;;;;;5022268;28;20737;-71
2023/08/15 01:46:13;;;;;;;18.13;13.48;;;;;;;;;;5029411;28;20667;-71
2023/08/15 01:48:42;;;;;;;17.20;13.40;;;;;;;;;;5016604;28;20496;-72
2023/08/15 01:51:08;;;;;;;14.48;12.95;;;;;;;;;;5027163;28;20214;-71
2023/08/15 01:53:35;;;;;;;15.15;12.82;;;;;;;;;;5029290;28;20190;-72
2023/08/15 01:56:01;;;;;;;14.32;12.32;;;;;;;;;;5024584;28;20273;-71
2023/08/15 01:58:27;;;;;;;16.08;12.27;;;;;;;;;;5011035;28;20265;-72
2023/08/15 02:00:52;;;;;;;17.42;14.10;;;;;;;;;;5022048;28;20289;-71
2023/08/15 02:03:17;;;;;;;16.13;13.52;;;;;;;;;;5028205;28;20240;-71
2023/08/15 02:05:43;;;;;;;16.52;12.85;;;;;;;;;;5019692;28;20632;-71
2023/08/15 02:08:08;;;;;;;17.30;13.57;;;;;;;;;;5027798;28;20186;-71
2023/08/15 02:10:34;;;;;;;17.35;13.23;;;;;;;;;;5016122;28;20202;-71
2023/08/15 02:12:59;;;;;;;18.10;14.07;;;;;;;;;;5022874;28;20189;-71
2023/08/15 02:15:24;;;;;;;16.45;13.20;;;;;;;;;;5017153;28;20577;-71
2023/08/15 02:17:50;;;;;;;19.60;13.98;;;;;;;;;;5028161;28;20320;-71
2023/08/15 02:20:15;;;;;;;17.40;13.95;;;;;;;;;;5011558;28;20240;-71
2023/08/15 02:22:40;;;;;;;18.92;13.30;;;;;;;;;;5022183;28;20503;-71
2023/08/15 02:25:06;;;;;;;13.18;11.65;;;;;;;;;;5029024;28;20217;-72
2023/08/15 02:27:32;;;;;;;20.33;14.05;;;;;;;;;;5005620;28;20202;-72
2023/08/15 02:29:57;;;;;;;18.38;14.23;;;;;;;;;;5023653;28;20222;-70
2023/08/15 02:32:22;;;;;;;20.23;14.60;;;;;;;;;;5023656;28;20269;-71
2023/08/15 02:34:48;;;;;;;20.15;13.85;;;;;;;;;;5029134;28;20194;-72
2023/08/15 02:37:13;;;;;;;17.88;13.73;;;;;;;;;;5028251;28;20182;-72
2023/08/15 02:39:38;;;;;;;17.02;14.43;;;;;;;;;;5028297;28;20221;-72
2023/08/15 02:42:04;;;;;;;20.60;13.95;;;;;;;;;;5027014;28;20194;-72
2023/08/15 02:44:29;;;;;;;20.48;14.10;;;;;;;;;;5028170;28;20234;-72
2023/08/15 02:46:55;;;;;;;17.40;13.73;;;;;;;;;;5032986;28;20190;-72
2023/08/15 02:49:20;;;;;;;17.25;12.23;;;;;;;;;;5030204;28;20609;-72
2023/08/15 02:51:45;;;;;;;20.23;14.02;;;;;;;;;;5031947;28;20194;-72
2023/08/15 02:54:11;;;;;;;16.92;13.98;;;;;;;;;;5032823;28;20190;-72
2023/08/15 02:56:36;;;;;;;16.38;13.52;;;;;;;;;;5032010;28;20190;-73
2023/08/15 02:59:02;;;;;;;18.83;12.88;;;;;;;;;;5028658;28;20195;-71
2023/08/15 03:01:27;;;;;;;18.17;13.13;;;;;;;;;;5028948;28;20185;-72
2023/08/15 03:03:52;;;;;;;19.10;13.68;;;;;;;;;;5030702;28;20277;-71
2023/08/15 03:06:18;;;;;;;16.33;12.50;;;;;;;;;;5026542;28;20198;-71
2023/08/15 03:08:45;;;;;;;17.42;13.35;;;;;;;;;;5032461;28;20252;-71
2023/08/15 03:11:11;;;;;;;14.48;11.95;;;;;;;;;;5025251;28;20646;-71
2023/08/15 03:13:36;;;;;;;14.55;11.23;;;;;;;;;;5030839;28;20201;-72
2023/08/15 03:16:02;;;;;;;14.80;11.32;;;;;;;;;;5023962;28;20228;-70
2023/08/15 03:18:27;;;;;;;19.05;12.90;;;;;;;;;;5028137;28;20206;-70
2023/08/15 03:21:01;;;;;;;14.10;10.23;;;;;;;;;;5031642;28;20237;-70
2023/08/15 03:23:27;;;;;;;13.32;11.10;;;;;;;;;;5031380;28;20189;-70
2023/08/15 03:25:56;;;;;;;13.15;11.65;;;;;;;;;;5029284;28;20194;-70
2023/08/15 03:28:21;;;;;;;12.48;10.57;;;;;;;;;;5026467;28;20854;-71
2023/08/15 03:30:47;;;;;;;14.02;11.27;;;;;;;;;;5027908;28;20271;-70
2023/08/15 03:33:12;;;;;;;15.07;12.27;;;;;;;;;;5032427;28;20193;-71
2023/08/15 03:35:44;;;;;;;12.40;11.10;;;;;;;;;;5020953;28;20198;-70
2023/08/15 03:38:10;;;;;;;17.17;11.45;;;;;;;;;;5031630;28;20196;-70
2023/08/15 03:40:35;;;;;;;16.75;12.55;;;;;;;;;;5030195;28;20642;-71
2023/08/15 03:43:00;;;;;;;15.63;11.95;;;;;;;;;;5030454;28;20229;-70
2023/08/15 03:45:28;;;;;;;15.88;12.10;;;;;;;;;;5031448;28;20202;-70
2023/08/15 03:47:53;;;;;;;17.13;12.02;;;;;;;;;;5032360;28;20304;-70
2023/08/15 03:50:18;;;;;;;14.32;11.27;;;;;;;;;;5030904;28;20276;-70
2023/08/15 03:52:44;;;;;;;16.23;12.15;;;;;;;;;;5032014;28;20269;-71
2023/08/15 03:55:09;;;;;;;16.45;11.40;;;;;;;;;;5021398;28;20217;-70
2023/08/15 03:57:35;;;;;;;19.27;12.75;;;;;;;;;;5024232;28;20186;-70
2023/08/15 04:00:00;;;;;;;15.50;11.93;;;;;;;;;;5030756;28;20240;-71
2023/08/15 04:02:25;;;;;;;16.73;12.50;;;;;;;;;;5031403;28;20198;-71
2023/08/15 04:04:51;;;;;;;13.95;11.00;;;;;;;;;;5026472;28;20216;-71
2023/08/15 04:07:16;;;;;;;15.35;12.88;;;;;;;;;;5020240;28;20629;-71
2023/08/15 04:09:41;;;;;;;15.23;12.98;;;;;;;;;;5025608;28;20214;-70
2023/08/15 04:12:07;;;;;;;14.90;11.63;;;;;;;;;;5030940;28;20213;-70
2023/08/15 04:14:32;;;;;;;18.02;12.63;;;;;;;;;;5024853;28;20739;-71
2023/08/15 04:16:58;;;;;;;17.67;13.20;;;;;;;;;;5029229;28;20790;-71
2023/08/15 04:19:23;;;;;;;17.05;12.32;;;;;;;;;;5029436;28;20190;-70
2023/08/15 04:21:48;;;;;;;19.52;13.27;;;;;;;;;;5033048;28;20684;-70
2023/08/15 04:24:14;;;;;;;21.08;13.30;;;;;;;;;;5024988;28;20566;-71
2023/08/15 04:26:39;;;;;;;15.10;12.30;;;;;;;;;;5025390;28;20201;-71
2023/08/15 04:29:04;;;;;;;19.83;12.50;;;;;;;;;;5027252;28;20487;-71
2023/08/15 04:31:30;;;;;;;15.07;12.55;;;;;;;;;;5033402;28;20659;-70
2023/08/15 04:33:55;;;;;;;16.00;13.15;;;;;;;;;;5030021;28;20217;-71
2023/08/15 04:36:20;;;;;;;17.38;12.48;;;;;;;;;;5022794;28;20232;-71
2023/08/15 04:38:46;;;;;;;17.73;13.95;;;;;;;;;;5030336;28;20543;-70
2023/08/15 04:41:11;;;;;;;22.67;14.88;;;;;;;;;;5031133;28;20245;-70
2023/08/15 04:43:37;;;;;;;17.05;13.63;;;;;;;;;;5017512;28;20574;-71
2023/08/15 04:46:02;;;;;;;17.80;13.95;;;;;;;;;;5020371;28;20193;-71
2023/08/15 04:48:27;;;;;;;19.63;13.32;;;;;;;;;;5030722;28;20712;-71
2023/08/15 04:50:53;;;;;;;19.23;13.48;;;;;;;;;;5029638;28;20210;-71
2023/08/15 04:53:18;;;;;;;19.42;13.27;;;;;;;;;;5030123;28;20199;-71
2023/08/15 04:55:44;;;;;;;19.73;13.45;;;;;;;;;;5030833;28;20277;-71
2023/08/15 04:58:09;;;;;;;24.48;13.52;;;;;;;;;;5030636;28;20193;-71
2023/08/15 05:00:35;;;;;;;19.63;13.27;;;;;;;;;;5030709;28;20190;-71
2023/08/15 05:03:01;;;;;;;18.70;12.30;;;;;;;;;;5029698;28;20226;-71
2023/08/15 05:05:26;;;;;;;20.15;11.75;;;;;;;;;;5029976;28;20186;-71
2023/08/15 05:07:51;;;;;;;20.30;12.05;;;;;;;;;;5029163;28;20192;-71
2023/08/15 05:10:17;;;;;;;18.30;11.40;;;;;;;;;;5028484;28;20220;-71
2023/08/15 05:12:42;;;;;;;17.05;11.15;;;;;;;;;;5030192;28;20252;-71
2023/08/15 05:15:09;;;;;;;15.00;9.35;;;;;;;;;;5028902;28;20191;-71
2023/08/15 05:17:35;;;;;;;16.35;9.80;;;;;;;;;;5034914;28;20201;-71
2023/08/15 05:20:00;;;;;;;12.57;8.77;;;;;;;;;;5031617;28;20179;-71
2023/08/15 05:22:25;;;;;;;17.20;9.25;;;;;;;;;;5027400;28;20189;-71
2023/08/15 05:24:51;;;;;;;13.38;9.02;;;;;;;;;;5027284;28;20190;-71
2023/08/15 05:27:16;;;;;;;15.05;8.93;;;;;;;;;;5026249;28;20219;-71
2023/08/15 05:29:43;;;;;;;14.80;9.05;;;;;;;;;;5022857;28;20214;-71
2023/08/15 05:32:09;;;;;;;15.23;9.20;;;;;;;;;;5027887;28;20190;-71
2023/08/15 05:34:34;;;;;;;14.80;8.85;;;;;;;;;;5028558;28;20178;-71
2023/08/15 05:36:59;;;;;;;16.88;9.30;;;;;;;;;;5010944;28;20191;-71
2023/08/15 05:39:25;;;;;;;15.57;8.63;;;;;;;;;;5029218;28;20201;-72
2023/08/15 05:41:50;;;;;;;16.20;8.35;;;;;;;;;;5029888;28;20697;-70
2023/08/15 05:44:16;;;;;;;15.15;9.35;;;;;;;;;;5028185;28;20309;-71
2023/08/15 05:46:41;;;;;;;16.63;8.45;;;;;;;;;;5029837;28;20186;-71
2023/08/15 05:49:06;;;;;;;13.57;9.30;;;;;;;;;;5028678;28;20194;-71
2023/08/15 05:51:32;;;;;;;12.52;7.68;;;;;;;;;;5023431;28;20218;-71
2023/08/15 05:53:57;;;;;;;15.32;8.23;;;;;;;;;;5029546;28;20712;-71
2023/08/15 05:56:22;;;;;;;17.75;7.45;;;;;;;;;;5026645;28;20217;-71
2023/08/15 05:58:48;;;;;;;13.75;7.85;;;;;;;;;;5029039;28;20236;-71
2023/08/15 06:01:13;;;;;;;13.95;7.07;;;;;;;;;;5017806;28;20240;-72
2023/08/15 06:03:38;;;;;;;13.18;7.18;;;;;;;;;;5023064;28;20632;-72
2023/08/15 06:06:04;;;;;;;13.43;6.15;;;;;;;;;;5012138;28;20206;-72
2023/08/15 06:08:29;;;;;;;12.77;6.03;;;;;;;;;;5028151;28;20189;-72
2023/08/15 06:10:55;;;;;;;11.95;6.22;;;;;;;;;;5020809;28;20329;-71
2023/08/15 06:13:20;;;;;;;10.27;6.28;;;;;;;;;;5026407;28;20588;-71
2023/08/15 06:15:45;;;;;;;11.15;5.80;;;;;;;;;;5039137;28;20206;-71
2023/08/15 06:18:11;;;;;;;13.25;5.60;;;;;;;;;;5027155;28;20222;-71
2023/08/15 06:20:36;;;;;;;12.88;5.32;;;;;;;;;;5031167;28;20182;-71
2023/08/15 06:23:02;;;;;;;11.80;5.25;;;;;;;;;;5031921;28;20584;-71
2023/08/15 06:25:27;;;;;;;9.93;4.47;;;;;;;;;;5032894;28;20288;-70
2023/08/15 06:27:53;;;;;;;9.65;4.20;;;;;;;;;;5031979;28;20276;-71
2023/08/15 06:30:18;;;;;;;12.70;4.72;;;;;;;;;;5033343;28;20254;-71
2023/08/15 06:32:45;;;;;;;12.63;4.93;;;;;;;;;;5033591;28;20324;-71
2023/08/15 06:35:11;;;;;;;12.80;4.70;;;;;;;;;;5034461;28;20255;-71
2023/08/15 06:37:36;;;;;;;10.20;5.60;;;;;;;;;;5032003;28;20265;-71
2023/08/15 06:40:03;;;;;;;9.25;4.55;;;;;;;;;;5033818;28;20277;-71
2023/08/15 06:42:28;;;;;;;11.68;4.50;;;;;;;;;;5027675;28;20316;-71
2023/08/15 06:45:11;;;;;;;13.10;4.90;;;;;;;;;;5022919;28;20699;-71
2023/08/15 06:47:36;;;;;;;10.18;4.75;;;;;;;;;;5043768;28;20330;-72
2023/08/15 06:50:02;;;;;;;9.93;4.35;;;;;;;;;;5022399;28;20713;-72
2023/08/15 06:52:27;;;;;;;10.05;4.47;;;;;;;;;;5031922;28;20201;-73
2023/08/15 06:54:53;;;;;;;10.68;5.43;;;;;;;;;;5015438;28;20186;-72
2023/08/15 06:57:18;;;;;;;11.68;4.97;;;;;;;;;;5031349;28;20225;-72
2023/08/15 06:59:43;;;;;;;13.10;4.88;;;;;;;;;;5031341;28;20708;-72
2023/08/15 07:02:10;;;;;;;12.13;4.82;;;;;;;;;;5025286;28;20198;-71
2023/08/15 07:04:40;;;;;;;12.07;4.38;;;;;;;;;;5031913;28;20186;-71
2023/08/15 07:07:06;;;;;;;17.08;5.15;;;;;;;;;;5030968;28;20186;-71
2023/08/15 07:09:32;;;;;;;11.32;4.35;;;;;;;;;;5032733;28;20313;-71
2023/08/15 07:11:58;;;;;;;8.15;4.47;;;;;;;;;;5032461;28;20226;-71
2023/08/15 07:14:23;;;;;;;11.50;4.40;;;;;;;;;;5027444;28;20213;-71
2023/08/15 07:16:49;;;;;;;13.70;4.78;;;;;;;;;;5031867;28;20297;-71
2023/08/15 07:19:15;;;;;;;9.27;3.72;;;;;;;;;;5031754;28;20521;-71
2023/08/15 07:21:41;;;;;;;10.35;3.90;;;;;;;;;;5020747;28;20187;-71
2023/08/15 07:24:07;;;;;;;7.90;3.33;;;;;;;;;;5031999;28;20217;-71
2023/08/15 07:26:32;;;;;;;8.45;3.78;;;;;;;;;;5023613;28;20253;-71
2023/08/15 07:28:57;;;;;;;11.20;3.72;;;;;;;;;;5029842;28;20182;-71
2023/08/15 07:31:23;;;;;;;11.63;3.50;;;;;;;;;;5033127;28;20267;-71
2023/08/15 07:33:48;;;;;;;11.13;3.80;;;;;;;;;;5030695;28;20209;-70
2023/08/15 07:36:13;;;;;;;7.45;3.15;;;;;;;;;;5030846;28;20618;-70
2023/08/15 07:38:39;;;;;;;8.25;2.92;;;;;;;;;;5031121;28;20252;-72
2023/08/15 07:41:04;;;;;;;9.80;2.90;;;;;;;;;;5030339;28;20225;-71
2023/08/15 07:43:30;;;;;;;7.68;3.08;;;;;;;;;;5031023;28;20724;-71
2023/08/15 07:45:55;;;;;;;8.98;3.03;;;;;;;;;;5027973;28;20191;-71
2023/08/15 07:48:21;;;;;;;7.55;3.15;;;;;;;;;;5021567;28;20190;-72
2023/08/15 07:50:46;;;;;;;10.15;3.20;;;;;;;;;;5029361;28;20225;-71
2023/08/15 07:53:12;;;;;;;11.98;2.92;;;;;;;;;;5031622;28;20197;-71
2023/08/15 07:55:38;;;;;;;9.75;3.88;;;;;;;;;;5031128;28;20248;-71
2023/08/15 07:58:03;;;;;;;9.43;3.72;;;;;;;;;;5030242;28;20618;-72
2023/08/15 08:00:28;;;;;;;9.60;3.42;;;;;;;;;;5031950;28;20256;-72
2023/08/15 08:02:54;;;;;;;5.53;2.88;;;;;;;;;;5030622;28;20198;-72
2023/08/15 08:05:20;;;;;;;8.63;2.70;;;;;;;;;;5031439;28;20588;-71
2023/08/15 08:07:45;;;;;;;7.65;2.92;;;;;;;;;;5022991;28;20624;-71
2023/08/15 08:10:11;;;;;;;8.25;2.95;;;;;;;;;;5018728;28;20222;-72
2023/08/15 08:12:37;;;;;;;13.02;2.83;;;;;;;;;;5016448;28;20183;-71
2023/08/15 08:15:03;;;;;;;9.55;3.03;;;;;;;;;;5027437;28;20186;-71
2023/08/15 08:17:29;;;;;;;7.43;2.95;;;;;;;;;;5031166;28;20216;-71
2023/08/15 08:19:54;;;;;;;8.98;2.80;;;;;;;;;;5030816;28;20502;-71
2023/08/15 08:22:20;;;;;;;7.82;2.83;;;;;;;;;;5024492;28;20281;-71
2023/08/15 08:24:48;;;;;;;10.00;3.13;;;;;;;;;;5029575;28;20186;-71
2023/08/15 08:27:14;;;;;;;8.57;2.42;;;;;;;;;;5017433;28;20221;-71
2023/08/15 08:29:39;;;;;;;10.27;2.45;;;;;;;;;;5021474;28;20182;-71
2023/08/15 08:32:05;;;;;;;7.72;2.70;;;;;;;;;;5033337;28;20692;-71
2023/08/15 08:34:30;;;;;;;4.78;2.15;;;;;;;;;;5029102;28;20239;-71
2023/08/15 08:36:55;;;;;;;5.68;2.40;;;;;;;;;;5029081;28;20186;-71
2023/08/15 08:39:21;;;;;;;6.13;2.50;;;;;;;;;;5031119;28;20186;-71
2023/08/15 08:41:47;;;;;;;7.88;2.92;;;;;;;;;;5023523;28;20207;-71
2023/08/15 08:44:13;;;;;;;8.15;2.67;;;;;;;;;;5022566;28;20733;-71
2023/08/15 08:46:39;;;;;;;8.90;3.00;;;;;;;;;;5021039;28;20182;-71
2023/08/15 08:49:07;;;;;;;7.85;2.90;;;;;;;;;;5030374;28;20194;-71
2023/08/15 08:51:32;;;;;;;8.45;2.55;;;;;;;;;;5030332;28;20221;-71
2023/08/15 08:53:58;;;;;;;8.85;2.70;;;;;;;;;;5030184;28;20560;-71
2023/08/15 08:56:27;;;;;;;7.70;2.63;;;;;;;;;;5030036;28;20197;-72
2023/08/15 08:58:59;;;;;;;12.18;3.28;;;;;;;;;;5030205;28;20198;-71
2023/08/15 09:01:29;;;;;;;7.07;3.00;;;;;;;;;;5027516;28;20183;-72
2023/08/15 09:03:55;;;;;;;5.30;2.97;;;;;;;;;;5035556;28;20190;-72
2023/08/15 09:06:21;;;;;;;9.13;2.90;;;;;;;;;;5019583;28;20269;-72
2023/08/15 09:08:47;;;;;;;6.80;2.90;;;;;;;;;;5028548;28;20190;-72
2023/08/15 09:11:12;;;;;;;10.68;3.10;;;;;;;;;;5029417;28;20225;-72
2023/08/15 09:13:47;;;;;;;6.50;2.92;;;;;;;;;;5029713;28;20229;-73
2023/08/15 09:16:14;;;;;;;8.68;3.00;;;;;;;;;;5029614;28;20574;-73
2023/08/15 09:18:39;;;;;;;6.32;2.80;;;;;;;;;;5029673;28;20233;-71
2023/08/15 09:21:05;;;;;;;8.88;2.85;;;;;;;;;;5030043;28;20190;-72
2023/08/15 09:23:31;;;;;;;7.43;2.83;;;;;;;;;;5010888;28;20193;-71
2023/08/15 09:25:57;;;;;;;6.30;2.58;;;;;;;;;;5024439;28;20391;-71
2023/08/15 09:28:22;;;;;;;7.35;2.22;;;;;;;;;;5021526;28;20590;-71
2023/08/15 09:30:52;;;;;;;6.45;2.15;;;;;;;;;;5025123;28;20213;-70
2023/08/15 09:33:18;;;;;;;6.50;2.20;;;;;;;;;;5024898;28;20267;-70
2023/08/15 09:35:45;;;;;;;6.78;2.20;;;;;;;;;;5028425;28;20680;-72
2023/08/15 09:38:11;;;;;;;5.97;2.50;;;;;;;;;;5013712;28;20186;-71
2023/08/15 09:40:37;;;;;;;9.73;2.10;;;;;;;;;;5026345;28;20182;-71
2023/08/15 09:43:03;;;;;;;6.57;1.90;;;;;;;;;;5019444;28;20305;-70
2023/08/15 09:45:29;;;;;;;9.60;2.47;;;;;;;;;;5013974;28;20361;-71
2023/08/15 09:47:55;;;;;;;6.28;2.92;;;;;;;;;;5016642;28;20650;-71
2023/08/15 09:50:21;;;;;;;6.05;2.85;;;;;;;;;;5028952;28;20613;-70
2023/08/15 09:52:47;;;;;;;7.00;2.25;;;;;;;;;;5029440;28;20186;-70
2023/08/15 09:55:14;;;;;;;5.03;2.30;;;;;;;;;;5029074;28;20186;-70
2023/08/15 09:57:41;;;;;;;5.28;2.03;;;;;;;;;;5019285;28;20278;-70
2023/08/15 10:00:11;;;;;;;4.43;2.20;;;;;;;;;;5038277;28;20575;-71
2023/08/15 10:02:43;;;;;;;7.25;2.72;;;;;;;;;;5018354;28;20273;-72
2023/08/15 10:05:11;;;;;;;6.47;2.38;;;;;;;;;;5027157;28;20217;-71
2023/08/15 10:07:37;;;;;;;6.72;2.30;;;;;;;;;;5028906;28;20194;-71
2023/08/15 10:10:04;;;;;;;5.38;2.63;;;;;;;;;;5028445;28;20233;-71
2023/08/15 10:12:31;;;;;;;6.00;2.67;;;;;;;;;;5027702;28;20218;-71
2023/08/15 10:14:58;;;;;;;6.43;2.78;;;;;;;;;;5028482;28;20250;-71
2023/08/15 10:17:28;;;;;;;5.70;2.58;;;;;;;;;;5025508;28;20535;-71
2023/08/15 10:19:54;;;;;;;6.70;3.15;;;;;;;;;;5028265;28;20630;-71
2023/08/15 10:22:20;;;;;;;7.53;2.78;;;;;;;;;;5021659;28;20201;-71
2023/08/15 10:24:46;;;;;;;5.75;2.70;;;;;;;;;;5020831;28;20219;-72
2023/08/15 10:27:12;;;;;;;4.63;2.30;;;;;;;;;;5028644;28;20240;-72
2023/08/15 10:30:03;;;;;;;5.32;2.30;;;;;;;;;;5028907;28;20185;-71
2023/08/15 10:32:33;;;;;;;5.25;2.10;;;;;;;;;;5013667;28;20259;-71
2023/08/15 10:35:02;;;;;;;6.90;2.13;;;;;;;;;;5028936;28;20262;-72
2023/08/15 10:37:41;;;;;;;6.40;2.45;;;;;;;;;;5026260;28;20190;-72
2023/08/15 10:40:11;;;;;;;7.30;2.40;;;;;;;;;;5028317;28;20711;-72
2023/08/15 10:43:02;;;;;;;5.25;2.60;;;;;;;;;;5027571;28;20218;-70
2023/08/15 10:45:35;;;;;;;7.55;2.50;;;;;;;;;;5026942;28;20190;-71
2023/08/15 10:48:01;;;;;;;6.43;2.45;;;;;;;;;;5028265;28;20532;-71
2023/08/15 10:50:26;;;;;;;7.18;2.60;;;;;;;;;;5028505;28;20213;-72
2023/08/15 10:53:02;;;;;;;4.38;2.22;;;;;;;;;;5014764;28;20255;-74
2023/08/15 10:55:34;;;;;;;4.60;2.00;;;;;;;;;;5036582;28;20279;-72
2023/08/15 10:58:02;;;;;;;4.70;2.63;;;;;;;;;;5029027;28;20202;-72
2023/08/15 11:00:28;;;;;;;7.18;2.33;;;;;;;;;;5026640;28;20619;-72
2023/08/15 11:02:54;;;;;;;5.25;2.28;;;;;;;;;;5024761;28;20198;-75
2023/08/15 11:05:38;;;;;;;5.53;2.03;;;;;;;;;;5028983;28;20637;-72
2023/08/15 11:08:14;;;;;;;4.15;1.98;;;;;;;;;;5030458;28;20201;-71
2023/08/15 11:10:44;;;;;;;6.93;2.28;;;;;;;;;;5032619;28;20248;-72
2023/08/15 11:13:09;;;;;;;6.35;2.40;;;;;;;;;;5030117;28;20190;-72
2023/08/15 11:15:35;;;;;;;6.80;2.65;;;;;;;;;;5032805;28;20192;-72
2023/08/15 11:18:00;;;;;;;5.75;2.22;;;;;;;;;;5023600;28;20562;-73
2023/08/15 11:20:29;;;;;;;5.45;2.13;;;;;;;;;;5030444;28;20210;-72
2023/08/15 11:22:58;;;;;;;4.63;1.90;;;;;;;;;;5031227;28;20190;-73
2023/08/15 11:25:24;;;;;;;5.20;2.45;;;;;;;;;;5031450;28;20244;-72
2023/08/15 11:27:53;;;;;;;5.88;2.45;;;;;;;;;;5023549;28;20570;-72
2023/08/15 11:30:18;;;;;;;9.02;2.30;;;;;;;;;;5032336;28;20263;-74
2023/08/15 11:32:44;;;;;;;4.78;2.40;;;;;;;;;;5030279;28;20198;-73
2023/08/15 11:35:11;;;;;;;11.82;2.78;;;;;;;;;;5032741;28;20265;-73
2023/08/15 11:37:37;;;;;;;10.18;2.88;;;;;;;;;;5030997;28;20198;-72
2023/08/15 11:40:03;;;;;;;6.30;2.30;;;;;;;;;;5032681;28;20200;-72
2023/08/15 11:42:29;;;;;;;6.75;2.40;;;;;;;;;;5028370;28;20581;-72
2023/08/15 11:45:22;;;;;;;6.32;2.72;;;;;;;;;;5022542;28;20484;-72
2023/08/15 11:48:14;;;;;;;7.18;2.38;;;;;;;;;;5029108;28;20201;-72
2023/08/15 11:50:41;;;;;;;4.55;2.40;;;;;;;;;;5029509;28;20230;-72
2023/08/15 11:53:11;;;;;;;8.40;2.70;;;;;;;;;;5039580;28;20289;-72
2023/08/15 11:55:38;;;;;;;6.72;2.35;;;;;;;;;;5026149;28;20540;-72
2023/08/15 11:58:21;;;;;;;7.28;2.25;;;;;;;;;;5026715;28;20273;-72
2023/08/15 12:00:46;;;;;;;4.70;2.13;;;;;;;;;;5019674;28;20191;-73
2023/08/15 12:03:12;;;;;;;6.20;2.20;;;;;;;;;;5027215;28;20186;-73
2023/08/15 12:05:43;;;;;;;5.20;2.42;;;;;;;;;;5030393;28;20182;-74
2023/08/15 12:08:09;;;;;;;8.48;2.55;;;;;;;;;;5029018;28;20197;-72
2023/08/15 12:10:34;;;;;;;5.55;2.35;;;;;;;;;;5031395;28;20202;-72
2023/08/15 12:13:01;;;;;;;5.43;2.13;;;;;;;;;;5030721;28;20534;-73
2023/08/15 12:15:27;;;;;;;5.75;2.47;;;;;;;;;;5029726;28;20183;-72
2023/08/15 12:17:52;;;;;;;6.28;2.40;;;;;;;;;;5029626;28;20684;-78
2023/08/15 12:20:17;;;;;;;7.60;3.05;;;;;;;;;;5031088;28;20642;-74
2023/08/15 12:22:43;;;;;;;8.23;3.20;;;;;;;;;;5029482;28;20193;-73
2023/08/15 12:25:09;;;;;;;9.18;4.28;;;;;;;;;;5031576;28;20289;-73
2023/08/15 12:27:35;;;;;;;7.18;3.08;;;;;;;;;;5028925;28;20621;-72
2023/08/15 12:30:03;;;;;;;5.85;2.65;;;;;;;;;;5028868;28;20238;-73
2023/08/15 12:32:28;;;;;;;5.57;2.30;;;;;;;;;;5011449;28;20561;-72
2023/08/15 12:34:53;;;;;;;5.25;2.30;;;;;;;;;;5031853;28;20204;-76
2023/08/15 12:37:19;;;;;;;6.22;2.47;;;;;;;;;;5030301;28;20186;-73
2023/08/15 12:39:44;;;;;;;5.28;2.30;;;;;;;;;;5022325;28;20204;-72
2023/08/15 12:42:12;;;;;;;6.97;2.50;;;;;;;;;;5028472;28;20200;-72
2023/08/15 12:44:37;;;;;;;6.28;2.33;;;;;;;;;;5003474;28;20186;-72
2023/08/15 12:47:03;;;;;;;6.25;2.58;;;;;;;;;;5030090;28;20248;-73
2023/08/15 12:49:28;;;;;;;4.93;2.47;;;;;;;;;;5015670;28;20182;-72
2023/08/15 12:51:54;;;;;;;6.35;2.58;;;;;;;;;;5026877;28;20258;-73
2023/08/15 12:54:19;;;;;;;6.47;2.55;;;;;;;;;;5027855;28;20193;-72
2023/08/15 12:56:45;;;;;;;7.07;2.55;;;;;;;;;;5028921;28;20657;-71
2023/08/15 12:59:11;;;;;;;7.90;3.13;;;;;;;;;;5029608;28;20228;-72
2023/08/15 13:01:37;;;;;;;7.00;2.80;;;;;;;;;;5030623;28;20186;-72
2023/08/15 13:04:02;;;;;;;6.32;2.90;;;;;;;;;;5029775;28;20554;-72
2023/08/15 13:06:28;;;;;;;7.75;3.03;;;;;;;;;;5016029;28;20202;-72
2023/08/15 13:08:53;;;;;;;6.65;2.63;;;;;;;;;;5026173;28;20623;-72
2023/08/15 13:11:18;;;;;;;5.22;2.85;;;;;;;;;;5030398;28;20221;-72
2023/08/15 13:13:44;;;;;;;7.13;2.85;;;;;;;;;;5022062;28;20187;-72
2023/08/15 13:16:09;;;;;;;5.70;2.85;;;;;;;;;;5022360;28;20190;-77
2023/08/15 13:18:35;;;;;;;6.65;3.30;;;;;;;;;;5025520;28;20209;-73
2023/08/15 13:21:01;;;;;;;8.75;3.55;;;;;;;;;;5029657;28;20189;-74
2023/08/15 13:23:26;;;;;;;9.02;3.90;;;;;;;;;;5007392;28;20210;-72
2023/08/15 13:25:52;;;;;;;8.20;3.90;;;;;;;;;;5029589;28;20233;-71
2023/08/15 13:28:17;;;;;;;8.73;4.15;;;;;;;;;;5026711;28;20206;-71
2023/08/15 13:30:43;;;;;;;8.05;4.07;;;;;;;;;;5027408;28;20317;-72
2023/08/15 13:33:09;;;;;;;9.60;4.30;;;;;;;;;;5013356;28;20249;-71
2023/08/15 13:35:34;;;;;;;8.98;4.18;;;;;;;;;;5025901;28;20606;-70
2023/08/15 13:37:59;;;;;;;10.32;4.15;;;;;;;;;;5028325;28;20277;-71
2023/08/15 13:40:25;;;;;;;10.95;4.47;;;;;;;;;;5011155;28;20195;-71
2023/08/15 13:42:50;;;;;;;9.48;3.92;;;;;;;;;;5030148;28;20429;-71
2023/08/15 13:45:17;;;;;;;6.65;3.92;;;;;;;;;;5030020;28;20212;-71
2023/08/15 13:47:43;;;;;;;6.85;4.30;;;;;;;;;;5012226;28;20199;-71
2023/08/15 13:50:09;;;;;;;8.50;4.00;;;;;;;;;;5021579;28;20263;-71
2023/08/15 13:52:36;;;;;;;6.53;3.97;;;;;;;;;;5025947;28;20681;-71
2023/08/15 13:55:02;;;;;;;9.77;4.13;;;;;;;;;;5040832;28;20228;-71
2023/08/15 13:57:27;;;;;;;8.98;3.85;;;;;;;;;;5021420;28;20631;-71
2023/08/15 13:59:54;;;;;;;7.50;3.45;;;;;;;;;;5028965;28;20332;-71
2023/08/15 14:02:19;;;;;;;9.75;4.20;;;;;;;;;;5029162;28;20217;-71
2023/08/15 14:04:45;;;;;;;6.07;3.13;;;;;;;;;;5017096;28;20663;-71
2023/08/15 14:07:10;;;;;;;7.78;3.58;;;;;;;;;;5020284;28;20195;-71
2023/08/15 14:09:36;;;;;;;9.38;3.28;;;;;;;;;;5022894;28;20273;-71
2023/08/15 14:12:01;;;;;;;7.45;3.35;;;;;;;;;;5028819;28;20274;-72
2023/08/15 14:14:26;;;;;;;6.32;3.38;;;;;;;;;;5022647;28;20727;-71
2023/08/15 14:16:52;;;;;;;7.47;3.83;;;;;;;;;;5028739;28;20700;-71
2023/08/15 14:19:17;;;;;;;7.43;4.18;;;;;;;;;;5028946;28;20198;-71
2023/08/15 14:21:43;;;;;;;7.95;4.32;;;;;;;;;;5029074;28;20178;-72
2023/08/15 14:24:09;;;;;;;8.10;4.05;;;;;;;;;;5028588;28;20285;-72
2023/08/15 14:26:35;;;;;;;9.82;3.75;;;;;;;;;;5029886;28;20224;-71